Monday, January 22, 2018, 8:43 AM EST
Back to Local

KGED, Georgetown Sussex Co Airport

Location: Georgetown, DE, United States Lat: 38.683
Local Time: 8:43 AM EST (13:43 GMT) Lon: -75.367
Time Zone: US/Eastern Elev: 52 ft

Show me the last for .
Show Decoded

2018-01-22 07:54 METAR KGED 221254Z AUTO 21007KT 10SM SCT070 OVC100 12/03 A3017 RMK AO2 SLP215
                 T01170033 =
2018-01-22 06:54 METAR KGED 221154Z AUTO 22007KT 10SM FEW070 OVC100 11/03 A3016 RMK AO2 SLP214
                 T01110033 10117 20106 53002 =
2018-01-22 05:54 METAR KGED 221054Z AUTO 22007KT 10SM BKN075 OVC100 11/04 A3015 RMK AO2 SLP211
                 T01060039 =
2018-01-22 04:54 METAR KGED 220954Z AUTO 21009KT 10SM BKN085 11/04 A3015 RMK AO2 SLP209 T01110044
                 =
2018-01-22 03:54 METAR KGED 220854Z AUTO 22008KT 10SM OVC100 11/04 A3016 RMK AO2 SLP211 T01110044
                 56002 =
2018-01-22 02:54 METAR KGED 220754Z AUTO 23010KT 10SM BKN080 OVC095 12/05 A3016 RMK AO2 SLP211
                 T01170050 =
2018-01-22 01:54 METAR KGED 220654Z AUTO 22010KT 10SM BKN095 11/05 A3016 RMK AO2 SLP210 T01110050
                 =
2018-01-22 00:54 METAR KGED 220554Z AUTO 22010KT 10SM OVC095 12/04 A3016 RMK AO2 SLP212 T01170044
                 10122 20094 58008 =
2018-01-21 23:54 METAR KGED 220454Z AUTO 22009KT 10SM OVC090 12/04 A3018 RMK AO2 SLP218 T01170044
                 401501028 =
2018-01-21 22:54 METAR KGED 220354Z AUTO 21006KT 10SM OVC080 11/04 A3018 RMK AO2 SLP221 T01110039
                 =
2018-01-21 21:54 METAR KGED 220254Z AUTO 19007KT 10SM OVC085 11/03 A3018 RMK AO2 SLP222 T01060033
                 55003 =
2018-01-21 20:54 METAR KGED 220154Z AUTO 21006KT 10SM OVC085 10/03 A3018 RMK AO2 SLP221 T01000028
                 =
2018-01-21 19:54 METAR KGED 220054Z AUTO 21007KT 10SM OVC080 11/02 A3018 RMK AO2 SLP221 T01110017
                 =
2018-01-21 18:54 METAR KGED 212354Z AUTO 19006KT 10SM OVC080 11/03 A3019 RMK AO2 SLP224 T01110028
                 10150 20094 53007 =
2018-01-21 17:54 METAR KGED 212254Z AUTO 19006KT 10SM BKN080 10/03 A3019 RMK AO2 SLP222 T01000028
                 =
2018-01-21 16:54 METAR KGED 212154Z AUTO 14006KT 10SM CLR 11/03 A3018 RMK AO2 SLP219 T01060028 =
2018-01-21 15:54 METAR KGED 212054Z AUTO 17004KT 10SM FEW055 14/03 A3017 RMK AO2 SLP217 T01390033
                 55006 =
2018-01-21 14:54 METAR KGED 211954Z AUTO 18005KT 10SM SCT050 14/03 A3017 RMK AO2 SLP216 T01440033
                 =
2018-01-21 13:54 METAR KGED 211854Z AUTO 00000KT 10SM OVC055 14/03 A3018 RMK AO2 SLP218 T01390033
                 =
2018-01-21 12:54 METAR KGED 211754Z AUTO 03005KT 10SM OVC050 13/03 A3019 RMK AO2 SLP222 T01330028
                 10133 21028 58014 =
2018-01-21 11:54 METAR KGED 211654Z AUTO 09003KT 10SM OVC048 12/02 A3021 RMK AO2 SLP231 T01170017
                 =
2018-01-21 10:54 METAR KGED 211554Z AUTO 00000KT 10SM OVC042 09/02 A3024 RMK AO2 SLP239 T00940017
                 =
2018-01-21 09:54 METAR KGED 211454Z AUTO 00000KT 10SM OVC041 07/02 A3023 RMK AO2 SLP236 T00670017
                 53016 =
2018-01-21 08:54 METAR KGED 211354Z AUTO 00000KT 10SM OVC040 03/00 A3020 RMK AO2 SLP228 T00330000
                 =

Support USWX by starting your Amazon purchase here.